sensor_id;sensor_type;location;lat;lon;timestamp;P1;durP1;ratioP1;P2;durP2;ratioP2
20945;SDS011;10632;51.276;7.116;2023-05-10T00:02:17;7.03;;;2.47;;
20945;SDS011;10632;51.276;7.116;2023-05-10T00:04:45;6.10;;;2.30;;
20945;SDS011;10632;51.276;7.116;2023-05-10T00:07:15;8.82;;;2.30;;
20945;SDS011;10632;51.276;7.116;2023-05-10T00:09:42;6.50;;;2.22;;
20945;SDS011;10632;51.276;7.116;2023-05-10T00:12:09;7.03;;;2.70;;
20945;SDS011;10632;51.276;7.116;2023-05-10T00:14:36;9.57;;;2.95;;
20945;SDS011;10632;51.276;7.116;2023-05-10T00:17:03;8.98;;;2.83;;
20945;SDS011;10632;51.276;7.116;2023-05-10T00:19:30;8.77;;;2.92;;
20945;SDS011;10632;51.276;7.116;2023-05-10T00:21:58;10.25;;;2.75;;
20945;SDS011;10632;51.276;7.116;2023-05-10T00:24:25;8.77;;;2.60;;
20945;SDS011;10632;51.276;7.116;2023-05-10T00:26:52;8.48;;;2.70;;
20945;SDS011;10632;51.276;7.116;2023-05-10T00:29:19;8.60;;;2.72;;
20945;SDS011;10632;51.276;7.116;2023-05-10T00:31:47;7.60;;;2.85;;
20945;SDS011;10632;51.276;7.116;2023-05-10T00:34:14;12.05;;;2.75;;
20945;SDS011;10632;51.276;7.116;2023-05-10T00:36:44;8.18;;;2.50;;
20945;SDS011;10632;51.276;7.116;2023-05-10T00:39:12;6.20;;;2.33;;
20945;SDS011;10632;51.276;7.116;2023-05-10T00:41:39;8.40;;;2.50;;
20945;SDS011;10632;51.276;7.116;2023-05-10T00:44:06;6.40;;;2.33;;
20945;SDS011;10632;51.276;7.116;2023-05-10T00:46:33;6.32;;;2.50;;
20945;SDS011;10632;51.276;7.116;2023-05-10T00:49:01;7.57;;;2.63;;
20945;SDS011;10632;51.276;7.116;2023-05-10T00:51:28;8.45;;;2.47;;
20945;SDS011;10632;51.276;7.116;2023-05-10T00:53:56;8.43;;;2.80;;
20945;SDS011;10632;51.276;7.116;2023-05-10T00:56:25;8.95;;;3.00;;
20945;SDS011;10632;51.276;7.116;2023-05-10T00:58:54;7.40;;;2.10;;
20945;SDS011;10632;51.276;7.116;2023-05-10T01:01:22;8.73;;;2.58;;
20945;SDS011;10632;51.276;7.116;2023-05-10T01:03:49;7.40;;;2.33;;
20945;SDS011;10632;51.276;7.116;2023-05-10T01:06:16;8.25;;;2.25;;
20945;SDS011;10632;51.276;7.116;2023-05-10T01:08:43;9.82;;;2.83;;
20945;SDS011;10632;51.276;7.116;2023-05-10T01:11:10;9.35;;;2.90;;
20945;SDS011;10632;51.276;7.116;2023-05-10T01:13:39;6.95;;;2.38;;
20945;SDS011;10632;51.276;7.116;2023-05-10T01:16:08;9.88;;;3.20;;
20945;SDS011;10632;51.276;7.116;2023-05-10T01:18:36;9.07;;;2.95;;
20945;SDS011;10632;51.276;7.116;2023-05-10T01:21:07;9.45;;;3.08;;
20945;SDS011;10632;51.276;7.116;2023-05-10T01:24:03;7.47;;;2.60;;
20945;SDS011;10632;51.276;7.116;2023-05-10T01:29:59;9.98;;;2.95;;
20945;SDS011;10632;51.276;7.116;2023-05-10T01:32:37;9.38;;;2.75;;
20945;SDS011;10632;51.276;7.116;2023-05-10T01:35:10;9.30;;;2.92;;
20945;SDS011;10632;51.276;7.116;2023-05-10T01:37:45;11.48;;;3.55;;
20945;SDS011;10632;51.276;7.116;2023-05-10T01:40:19;14.50;;;3.72;;
20945;SDS011;10632;51.276;7.116;2023-05-10T01:42:53;12.45;;;3.35;;
20945;SDS011;10632;51.276;7.116;2023-05-10T01:45:30;14.60;;;4.25;;
20945;SDS011;10632;51.276;7.116;2023-05-10T01:48:08;15.20;;;5.13;;
20945;SDS011;10632;51.276;7.116;2023-05-10T01:50:43;20.08;;;5.57;;
20945;SDS011;10632;51.276;7.116;2023-05-10T01:53:18;15.93;;;5.18;;
20945;SDS011;10632;51.276;7.116;2023-05-10T01:55:52;19.05;;;5.30;;
20945;SDS011;10632;51.276;7.116;2023-05-10T01:58:21;17.42;;;5.30;;
20945;SDS011;10632;51.276;7.116;2023-05-10T02:00:51;17.55;;;5.20;;
20945;SDS011;10632;51.276;7.116;2023-05-10T02:03:21;16.38;;;4.88;;
20945;SDS011;10632;51.276;7.116;2023-05-10T02:05:54;15.85;;;5.35;;
20945;SDS011;10632;51.276;7.116;2023-05-10T02:08:26;16.77;;;4.78;;
20945;SDS011;10632;51.276;7.116;2023-05-10T02:10:54;11.57;;;3.65;;
20945;SDS011;10632;51.276;7.116;2023-05-10T02:13:23;10.60;;;3.72;;
20945;SDS011;10632;51.276;7.116;2023-05-10T02:15:52;10.20;;;3.35;;
20945;SDS011;10632;51.276;7.116;2023-05-10T02:18:22;9.38;;;2.97;;
20945;SDS011;10632;51.276;7.116;2023-05-10T02:20:50;13.85;;;3.72;;
20945;SDS011;10632;51.276;7.116;2023-05-10T02:23:20;12.57;;;3.80;;
20945;SDS011;10632;51.276;7.116;2023-05-10T02:25:48;11.65;;;4.00;;
20945;SDS011;10632;51.276;7.116;2023-05-10T02:28:16;11.13;;;4.13;;
20945;SDS011;10632;51.276;7.116;2023-05-10T02:30:47;10.18;;;3.38;;
20945;SDS011;10632;51.276;7.116;2023-05-10T02:33:14;7.65;;;3.28;;
20945;SDS011;10632;51.276;7.116;2023-05-10T02:35:43;11.93;;;4.43;;
20945;SDS011;10632;51.276;7.116;2023-05-10T02:38:10;14.02;;;4.25;;
20945;SDS011;10632;51.276;7.116;2023-05-10T02:40:40;13.63;;;4.85;;
20945;SDS011;10632;51.276;7.116;2023-05-10T02:43:09;16.17;;;4.75;;
20945;SDS011;10632;51.276;7.116;2023-05-10T02:45:40;13.05;;;4.38;;
20945;SDS011;10632;51.276;7.116;2023-05-10T02:48:09;12.10;;;4.18;;
20945;SDS011;10632;51.276;7.116;2023-05-10T02:50:37;10.88;;;3.90;;
20945;SDS011;10632;51.276;7.116;2023-05-10T02:53:11;11.27;;;3.58;;
20945;SDS011;10632;51.276;7.116;2023-05-10T02:55:43;12.55;;;3.65;;
20945;SDS011;10632;51.276;7.116;2023-05-10T02:58:15;10.95;;;3.90;;
20945;SDS011;10632;51.276;7.116;2023-05-10T03:00:45;9.07;;;3.20;;
20945;SDS011;10632;51.276;7.116;2023-05-10T03:03:12;10.90;;;3.53;;
20945;SDS011;10632;51.276;7.116;2023-05-10T03:05:39;11.05;;;3.15;;
20945;SDS011;10632;51.276;7.116;2023-05-10T03:08:06;8.60;;;3.25;;
20945;SDS011;10632;51.276;7.116;2023-05-10T03:10:38;8.38;;;2.97;;
20945;SDS011;10632;51.276;7.116;2023-05-10T03:13:12;10.38;;;3.13;;
20945;SDS011;10632;51.276;7.116;2023-05-10T03:15:53;8.65;;;2.67;;
20945;SDS011;10632;51.276;7.116;2023-05-10T03:18:33;10.13;;;3.10;;
20945;SDS011;10632;51.276;7.116;2023-05-10T03:21:05;7.40;;;2.60;;
20945;SDS011;10632;51.276;7.116;2023-05-10T03:23:39;9.48;;;3.33;;
20945;SDS011;10632;51.276;7.116;2023-05-10T03:26:10;6.80;;;2.83;;
20945;SDS011;10632;51.276;7.116;2023-05-10T03:28:41;8.90;;;2.90;;
20945;SDS011;10632;51.276;7.116;2023-05-10T03:31:08;11.20;;;2.92;;
20945;SDS011;10632;51.276;7.116;2023-05-10T03:33:35;10.70;;;3.75;;
20945;SDS011;10632;51.276;7.116;2023-05-10T03:36:11;9.48;;;3.50;;
20945;SDS011;10632;51.276;7.116;2023-05-10T03:38:38;11.85;;;4.03;;
20945;SDS011;10632;51.276;7.116;2023-05-10T03:41:05;10.40;;;3.83;;
20945;SDS011;10632;51.276;7.116;2023-05-10T03:43:34;12.05;;;3.38;;
20945;SDS011;10632;51.276;7.116;2023-05-10T03:46:02;10.30;;;3.60;;
20945;SDS011;10632;51.276;7.116;2023-05-10T03:48:29;16.38;;;4.95;;
20945;SDS011;10632;51.276;7.116;2023-05-10T03:50:56;13.50;;;4.10;;
20945;SDS011;10632;51.276;7.116;2023-05-10T03:53:23;15.60;;;4.90;;
20945;SDS011;10632;51.276;7.116;2023-05-10T03:55:51;16.85;;;5.40;;
20945;SDS011;10632;51.276;7.116;2023-05-10T03:58:18;14.50;;;4.53;;
20945;SDS011;10632;51.276;7.116;2023-05-10T04:00:47;17.77;;;5.13;;
20945;SDS011;10632;51.276;7.116;2023-05-10T04:03:14;13.23;;;4.18;;
20945;SDS011;10632;51.276;7.116;2023-05-10T04:05:41;12.50;;;3.75;;
20945;SDS011;10632;51.276;7.116;2023-05-10T04:08:08;14.85;;;4.35;;
20945;SDS011;10632;51.276;7.116;2023-05-10T04:10:35;14.48;;;3.97;;
20945;SDS011;10632;51.276;7.116;2023-05-10T04:13:02;13.93;;;3.97;;
20945;SDS011;10632;51.276;7.116;2023-05-10T04:15:29;11.02;;;3.45;;
20945;SDS011;10632;51.276;7.116;2023-05-10T04:17:57;12.35;;;3.35;;
20945;SDS011;10632;51.276;7.116;2023-05-10T04:20:24;11.20;;;3.60;;
20945;SDS011;10632;51.276;7.116;2023-05-10T04:22:51;13.82;;;3.50;;
20945;SDS011;10632;51.276;7.116;2023-05-10T04:25:18;12.13;;;3.45;;
20945;SDS011;10632;51.276;7.116;2023-05-10T04:27:45;15.68;;;4.50;;
20945;SDS011;10632;51.276;7.116;2023-05-10T04:30:12;11.07;;;3.58;;
20945;SDS011;10632;51.276;7.116;2023-05-10T04:32:39;18.00;;;4.75;;
20945;SDS011;10632;51.276;7.116;2023-05-10T04:35:08;18.08;;;5.00;;
20945;SDS011;10632;51.276;7.116;2023-05-10T04:37:36;18.80;;;5.45;;
20945;SDS011;10632;51.276;7.116;2023-05-10T04:40:03;19.02;;;5.25;;
20945;SDS011;10632;51.276;7.116;2023-05-10T04:42:31;22.17;;;5.57;;
20945;SDS011;10632;51.276;7.116;2023-05-10T04:44:58;19.70;;;5.85;;
20945;SDS011;10632;51.276;7.116;2023-05-10T04:47:24;21.23;;;5.55;;
20945;SDS011;10632;51.276;7.116;2023-05-10T04:49:51;18.25;;;5.70;;
20945;SDS011;10632;51.276;7.116;2023-05-10T04:52:19;19.50;;;6.13;;
20945;SDS011;10632;51.276;7.116;2023-05-10T04:54:46;21.85;;;5.63;;
20945;SDS011;10632;51.276;7.116;2023-05-10T04:57:13;24.65;;;6.53;;
20945;SDS011;10632;51.276;7.116;2023-05-10T04:59:40;23.52;;;6.32;;
20945;SDS011;10632;51.276;7.116;2023-05-10T05:02:07;20.23;;;6.00;;
20945;SDS011;10632;51.276;7.116;2023-05-10T05:04:34;28.50;;;6.78;;
20945;SDS011;10632;51.276;7.116;2023-05-10T05:09:39;29.60;;;7.18;;
20945;SDS011;10632;51.276;7.116;2023-05-10T05:12:06;26.40;;;6.60;;
20945;SDS011;10632;51.276;7.116;2023-05-10T05:14:38;28.05;;;6.82;;
20945;SDS011;10632;51.276;7.116;2023-05-10T05:17:06;26.98;;;6.85;;
20945;SDS011;10632;51.276;7.116;2023-05-10T05:19:33;28.73;;;6.70;;
20945;SDS011;10632;51.276;7.116;2023-05-10T05:22:00;24.35;;;6.90;;
20945;SDS011;10632;51.276;7.116;2023-05-10T05:24:27;27.23;;;7.00;;
20945;SDS011;10632;51.276;7.116;2023-05-10T05:26:56;25.13;;;6.78;;
20945;SDS011;10632;51.276;7.116;2023-05-10T05:29:22;27.05;;;7.50;;
20945;SDS011;10632;51.276;7.116;2023-05-10T05:31:50;24.50;;;6.78;;
20945;SDS011;10632;51.276;7.116;2023-05-10T05:34:17;29.23;;;7.20;;
20945;SDS011;10632;51.276;7.116;2023-05-10T05:36:45;30.98;;;7.78;;
20945;SDS011;10632;51.276;7.116;2023-05-10T05:39:12;25.05;;;7.38;;
20945;SDS011;10632;51.276;7.116;2023-05-10T05:41:39;27.23;;;7.20;;
20945;SDS011;10632;51.276;7.116;2023-05-10T05:44:07;26.15;;;7.50;;
20945;SDS011;10632;51.276;7.116;2023-05-10T05:46:35;27.38;;;7.25;;
20945;SDS011;10632;51.276;7.116;2023-05-10T05:49:01;24.13;;;6.65;;
20945;SDS011;10632;51.276;7.116;2023-05-10T05:51:31;29.98;;;7.40;;
20945;SDS011;10632;51.276;7.116;2023-05-10T05:53:59;29.35;;;7.05;;
20945;SDS011;10632;51.276;7.116;2023-05-10T05:56:26;27.02;;;7.07;;
20945;SDS011;10632;51.276;7.116;2023-05-10T05:58:53;26.13;;;7.95;;
20945;SDS011;10632;51.276;7.116;2023-05-10T06:01:25;27.05;;;6.85;;
20945;SDS011;10632;51.276;7.116;2023-05-10T06:03:52;24.27;;;6.00;;
20945;SDS011;10632;51.276;7.116;2023-05-10T06:06:18;27.02;;;7.10;;
20945;SDS011;10632;51.276;7.116;2023-05-10T06:08:45;22.40;;;6.28;;
20945;SDS011;10632;51.276;7.116;2023-05-10T06:11:12;28.25;;;7.03;;
20945;SDS011;10632;51.276;7.116;2023-05-10T06:13:39;24.98;;;6.38;;
20945;SDS011;10632;51.276;7.116;2023-05-10T06:16:07;25.83;;;6.47;;
20945;SDS011;10632;51.276;7.116;2023-05-10T06:18:35;25.33;;;6.50;;
20945;SDS011;10632;51.276;7.116;2023-05-10T06:21:02;25.65;;;6.80;;
20945;SDS011;10632;51.276;7.116;2023-05-10T06:23:29;22.38;;;6.25;;
20945;SDS011;10632;51.276;7.116;2023-05-10T06:25:56;21.45;;;6.13;;
20945;SDS011;10632;51.276;7.116;2023-05-10T06:28:23;25.83;;;6.45;;
20945;SDS011;10632;51.276;7.116;2023-05-10T06:30:50;25.63;;;7.25;;
20945;SDS011;10632;51.276;7.116;2023-05-10T06:33:17;28.02;;;6.50;;
20945;SDS011;10632;51.276;7.116;2023-05-10T06:35:46;25.65;;;6.70;;
20945;SDS011;10632;51.276;7.116;2023-05-10T06:38:13;26.42;;;7.50;;
20945;SDS011;10632;51.276;7.116;2023-05-10T06:40:41;26.73;;;7.25;;
20945;SDS011;10632;51.276;7.116;2023-05-10T06:43:08;23.00;;;6.82;;
20945;SDS011;10632;51.276;7.116;2023-05-10T06:45:35;22.50;;;6.53;;
20945;SDS011;10632;51.276;7.116;2023-05-10T06:48:02;20.33;;;6.53;;
20945;SDS011;10632;51.276;7.116;2023-05-10T06:50:29;21.17;;;6.25;;
20945;SDS011;10632;51.276;7.116;2023-05-10T06:52:57;23.10;;;6.40;;
20945;SDS011;10632;51.276;7.116;2023-05-10T06:55:24;23.67;;;6.00;;
20945;SDS011;10632;51.276;7.116;2023-05-10T06:57:51;20.95;;;6.50;;
20945;SDS011;10632;51.276;7.116;2023-05-10T07:00:19;19.38;;;6.22;;
20945;SDS011;10632;51.276;7.116;2023-05-10T07:02:46;18.02;;;5.57;;
20945;SDS011;10632;51.276;7.116;2023-05-10T07:05:13;16.55;;;5.65;;
20945;SDS011;10632;51.276;7.116;2023-05-10T07:07:40;20.08;;;6.20;;
20945;SDS011;10632;51.276;7.116;2023-05-10T07:10:09;18.20;;;5.75;;
20945;SDS011;10632;51.276;7.116;2023-05-10T07:12:36;18.83;;;6.75;;
20945;SDS011;10632;51.276;7.116;2023-05-10T07:15:03;23.65;;;6.43;;
20945;SDS011;10632;51.276;7.116;2023-05-10T07:17:31;23.08;;;6.25;;
20945;SDS011;10632;51.276;7.116;2023-05-10T07:19:58;26.20;;;7.07;;
20945;SDS011;10632;51.276;7.116;2023-05-10T07:22:25;25.92;;;6.70;;
20945;SDS011;10632;51.276;7.116;2023-05-10T07:24:52;22.00;;;6.38;;
20945;SDS011;10632;51.276;7.116;2023-05-10T07:27:20;24.80;;;6.32;;
20945;SDS011;10632;51.276;7.116;2023-05-10T07:29:48;22.75;;;6.57;;
20945;SDS011;10632;51.276;7.116;2023-05-10T07:32:14;21.02;;;6.28;;
20945;SDS011;10632;51.276;7.116;2023-05-10T07:34:42;23.23;;;6.15;;
20945;SDS011;10632;51.276;7.116;2023-05-10T07:37:08;21.73;;;6.18;;
20945;SDS011;10632;51.276;7.116;2023-05-10T07:39:35;21.55;;;6.18;;
20945;SDS011;10632;51.276;7.116;2023-05-10T07:42:02;23.17;;;6.47;;
20945;SDS011;10632;51.276;7.116;2023-05-10T07:44:31;18.35;;;5.88;;
20945;SDS011;10632;51.276;7.116;2023-05-10T07:46:58;18.80;;;5.45;;
20945;SDS011;10632;51.276;7.116;2023-05-10T07:49:25;16.75;;;5.10;;
20945;SDS011;10632;51.276;7.116;2023-05-10T07:51:52;20.33;;;5.65;;
20945;SDS011;10632;51.276;7.116;2023-05-10T07:54:19;16.13;;;5.03;;
20945;SDS011;10632;51.276;7.116;2023-05-10T07:56:46;23.13;;;5.60;;
20945;SDS011;10632;51.276;7.116;2023-05-10T07:59:14;18.17;;;5.05;;
20945;SDS011;10632;51.276;7.116;2023-05-10T08:01:43;14.48;;;4.53;;
20945;SDS011;10632;51.276;7.116;2023-05-10T08:04:11;16.23;;;4.55;;
20945;SDS011;10632;51.276;7.116;2023-05-10T08:06:38;20.42;;;4.93;;
20945;SDS011;10632;51.276;7.116;2023-05-10T08:09:05;19.33;;;4.85;;
20945;SDS011;10632;51.276;7.116;2023-05-10T08:11:32;15.43;;;5.50;;
20945;SDS011;10632;51.276;7.116;2023-05-10T08:14:00;19.02;;;5.13;;
20945;SDS011;10632;51.276;7.116;2023-05-10T08:16:27;19.70;;;6.10;;
20945;SDS011;10632;51.276;7.116;2023-05-10T08:18:55;17.50;;;5.97;;
20945;SDS011;10632;51.276;7.116;2023-05-10T08:21:22;21.77;;;5.88;;
20945;SDS011;10632;51.276;7.116;2023-05-10T08:23:49;27.83;;;7.07;;
20945;SDS011;10632;51.276;7.116;2023-05-10T08:26:16;26.05;;;6.78;;
20945;SDS011;10632;51.276;7.116;2023-05-10T08:28:43;19.55;;;6.15;;
20945;SDS011;10632;51.276;7.116;2023-05-10T08:31:09;19.67;;;5.68;;
20945;SDS011;10632;51.276;7.116;2023-05-10T08:33:36;24.98;;;5.82;;
20945;SDS011;10632;51.276;7.116;2023-05-10T08:36:05;28.00;;;6.95;;
20945;SDS011;10632;51.276;7.116;2023-05-10T08:38:32;26.27;;;6.45;;
20945;SDS011;10632;51.276;7.116;2023-05-10T08:40:59;26.58;;;5.93;;
20945;SDS011;10632;51.276;7.116;2023-05-10T08:43:29;26.10;;;7.20;;
20945;SDS011;10632;51.276;7.116;2023-05-10T08:45:56;23.70;;;6.20;;
20945;SDS011;10632;51.276;7.116;2023-05-10T08:48:27;15.98;;;5.47;;
20945;SDS011;10632;51.276;7.116;2023-05-10T08:51:00;21.33;;;5.57;;
20945;SDS011;10632;51.276;7.116;2023-05-10T08:53:31;21.67;;;6.00;;
20945;SDS011;10632;51.276;7.116;2023-05-10T08:56:01;17.00;;;5.25;;
20945;SDS011;10632;51.276;7.116;2023-05-10T08:58:29;18.45;;;5.50;;
20945;SDS011;10632;51.276;7.116;2023-05-10T09:00:56;18.17;;;5.38;;
20945;SDS011;10632;51.276;7.116;2023-05-10T09:03:24;17.27;;;5.20;;
20945;SDS011;10632;51.276;7.116;2023-05-10T09:05:51;22.48;;;5.85;;
20945;SDS011;10632;51.276;7.116;2023-05-10T09:08:18;19.40;;;6.13;;
20945;SDS011;10632;51.276;7.116;2023-05-10T09:10:47;21.95;;;5.57;;
20945;SDS011;10632;51.276;7.116;2023-05-10T09:13:15;26.98;;;6.30;;
20945;SDS011;10632;51.276;7.116;2023-05-10T09:15:43;22.70;;;5.85;;
20945;SDS011;10632;51.276;7.116;2023-05-10T09:18:11;25.42;;;6.75;;
20945;SDS011;10632;51.276;7.116;2023-05-10T09:20:38;23.23;;;5.97;;
20945;SDS011;10632;51.276;7.116;2023-05-10T09:23:05;19.88;;;5.75;;
20945;SDS011;10632;51.276;7.116;2023-05-10T09:25:32;24.27;;;6.80;;
20945;SDS011;10632;51.276;7.116;2023-05-10T09:28:01;25.20;;;5.88;;
20945;SDS011;10632;51.276;7.116;2023-05-10T09:30:28;24.85;;;5.95;;
20945;SDS011;10632;51.276;7.116;2023-05-10T09:32:56;21.40;;;6.38;;
20945;SDS011;10632;51.276;7.116;2023-05-10T09:35:25;30.10;;;6.65;;
20945;SDS011;10632;51.276;7.116;2023-05-10T09:37:54;30.35;;;6.78;;
20945;SDS011;10632;51.276;7.116;2023-05-10T09:40:22;32.38;;;7.10;;
20945;SDS011;10632;51.276;7.116;2023-05-10T09:42:53;36.63;;;8.27;;
20945;SDS011;10632;51.276;7.116;2023-05-10T09:45:23;28.55;;;7.32;;
20945;SDS011;10632;51.276;7.116;2023-05-10T09:47:51;29.75;;;7.85;;
20945;SDS011;10632;51.276;7.116;2023-05-10T09:50:18;31.88;;;7.20;;
20945;SDS011;10632;51.276;7.116;2023-05-10T09:52:47;33.10;;;6.85;;
20945;SDS011;10632;51.276;7.116;2023-05-10T09:55:16;30.65;;;7.20;;
20945;SDS011;10632;51.276;7.116;2023-05-10T09:57:45;28.48;;;8.32;;
20945;SDS011;10632;51.276;7.116;2023-05-10T10:00:16;25.02;;;7.47;;
20945;SDS011;10632;51.276;7.116;2023-05-10T10:02:46;32.65;;;7.63;;
20945;SDS011;10632;51.276;7.116;2023-05-10T10:05:14;41.42;;;8.82;;
20945;SDS011;10632;51.276;7.116;2023-05-10T10:07:41;34.85;;;8.50;;
20945;SDS011;10632;51.276;7.116;2023-05-10T10:10:09;29.63;;;7.18;;
20945;SDS011;10632;51.276;7.116;2023-05-10T10:12:38;29.00;;;7.70;;
20945;SDS011;10632;51.276;7.116;2023-05-10T10:15:09;29.27;;;7.28;;
20945;SDS011;10632;51.276;7.116;2023-05-10T10:17:36;26.75;;;7.22;;
20945;SDS011;10632;51.276;7.116;2023-05-10T10:20:07;27.98;;;8.00;;
20945;SDS011;10632;51.276;7.116;2023-05-10T10:22:34;28.15;;;7.60;;
20945;SDS011;10632;51.276;7.116;2023-05-10T10:25:02;26.30;;;7.13;;
20945;SDS011;10632;51.276;7.116;2023-05-10T10:27:33;26.10;;;7.13;;
20945;SDS011;10632;51.276;7.116;2023-05-10T10:30:10;25.25;;;7.13;;
20945;SDS011;10632;51.276;7.116;2023-05-10T10:32:49;25.90;;;7.15;;
20945;SDS011;10632;51.276;7.116;2023-05-10T10:35:29;24.33;;;7.15;;
20945;SDS011;10632;51.276;7.116;2023-05-10T10:37:56;22.83;;;6.55;;
20945;SDS011;10632;51.276;7.116;2023-05-10T10:40:24;23.92;;;7.00;;
20945;SDS011;10632;51.276;7.116;2023-05-10T10:42:52;22.33;;;7.03;;
20945;SDS011;10632;51.276;7.116;2023-05-10T10:45:20;24.85;;;6.82;;
20945;SDS011;10632;51.276;7.116;2023-05-10T10:47:47;22.58;;;6.85;;
20945;SDS011;10632;51.276;7.116;2023-05-10T10:50:15;25.65;;;7.22;;
20945;SDS011;10632;51.276;7.116;2023-05-10T10:52:43;23.92;;;7.00;;
20945;SDS011;10632;51.276;7.116;2023-05-10T10:55:14;22.75;;;6.60;;
20945;SDS011;10632;51.276;7.116;2023-05-10T10:57:43;20.88;;;5.93;;
20945;SDS011;10632;51.276;7.116;2023-05-10T11:00:19;20.90;;;6.65;;
20945;SDS011;10632;51.276;7.116;2023-05-10T11:02:51;19.15;;;5.72;;
20945;SDS011;10632;51.276;7.116;2023-05-10T11:05:33;19.13;;;5.80;;
20945;SDS011;10632;51.276;7.116;2023-05-10T11:08:13;18.27;;;6.00;;
20945;SDS011;10632;51.276;7.116;2023-05-10T11:10:51;23.67;;;6.45;;
20945;SDS011;10632;51.276;7.116;2023-05-10T11:13:27;21.02;;;6.47;;
20945;SDS011;10632;51.276;7.116;2023-05-10T11:15:55;21.30;;;6.13;;
20945;SDS011;10632;51.276;7.116;2023-05-10T11:18:24;21.98;;;6.78;;
20945;SDS011;10632;51.276;7.116;2023-05-10T11:20:52;19.52;;;6.20;;
20945;SDS011;10632;51.276;7.116;2023-05-10T11:23:28;20.92;;;6.60;;
20945;SDS011;10632;51.276;7.116;2023-05-10T11:25:56;20.10;;;6.22;;
20945;SDS011;10632;51.276;7.116;2023-05-10T11:28:24;21.88;;;6.82;;
20945;SDS011;10632;51.276;7.116;2023-05-10T11:30:52;23.20;;;6.32;;
20945;SDS011;10632;51.276;7.116;2023-05-10T11:33:20;18.08;;;5.85;;
20945;SDS011;10632;51.276;7.116;2023-05-10T11:35:47;15.65;;;5.47;;
20945;SDS011;10632;51.276;7.116;2023-05-10T11:38:14;19.05;;;6.47;;
20945;SDS011;10632;51.276;7.116;2023-05-10T11:40:43;14.88;;;4.97;;
20945;SDS011;10632;51.276;7.116;2023-05-10T11:43:10;18.63;;;5.82;;
20945;SDS011;10632;51.276;7.116;2023-05-10T11:45:37;18.52;;;5.85;;
20945;SDS011;10632;51.276;7.116;2023-05-10T11:48:05;21.42;;;6.40;;
20945;SDS011;10632;51.276;7.116;2023-05-10T11:50:33;21.95;;;5.68;;
20945;SDS011;10632;51.276;7.116;2023-05-10T11:53:02;19.63;;;5.50;;
20945;SDS011;10632;51.276;7.116;2023-05-10T11:55:30;17.80;;;5.75;;
20945;SDS011;10632;51.276;7.116;2023-05-10T11:58:01;18.13;;;5.55;;
20945;SDS011;10632;51.276;7.116;2023-05-10T12:00:28;17.65;;;6.07;;
20945;SDS011;10632;51.276;7.116;2023-05-10T12:02:56;17.45;;;5.85;;
20945;SDS011;10632;51.276;7.116;2023-05-10T12:05:23;16.00;;;5.50;;
20945;SDS011;10632;51.276;7.116;2023-05-10T12:07:51;19.63;;;6.05;;
20945;SDS011;10632;51.276;7.116;2023-05-10T12:10:23;18.38;;;6.18;;
20945;SDS011;10632;51.276;7.116;2023-05-10T12:12:53;19.95;;;6.18;;
20945;SDS011;10632;51.276;7.116;2023-05-10T12:15:22;16.70;;;5.88;;
20945;SDS011;10632;51.276;7.116;2023-05-10T12:17:50;17.33;;;6.38;;
20945;SDS011;10632;51.276;7.116;2023-05-10T12:20:18;18.20;;;5.70;;
20945;SDS011;10632;51.276;7.116;2023-05-10T12:22:47;22.10;;;6.93;;
20945;SDS011;10632;51.276;7.116;2023-05-10T12:25:15;17.42;;;6.45;;
20945;SDS011;10632;51.276;7.116;2023-05-10T12:27:53;21.75;;;6.43;;
20945;SDS011;10632;51.276;7.116;2023-05-10T12:30:23;20.05;;;6.70;;
20945;SDS011;10632;51.276;7.116;2023-05-10T12:32:51;19.08;;;6.65;;
20945;SDS011;10632;51.276;7.116;2023-05-10T12:35:18;23.50;;;6.90;;
20945;SDS011;10632;51.276;7.116;2023-05-10T12:37:46;20.83;;;7.03;;
20945;SDS011;10632;51.276;7.116;2023-05-10T12:40:14;23.08;;;7.20;;
20945;SDS011;10632;51.276;7.116;2023-05-10T12:42:43;22.75;;;7.63;;
20945;SDS011;10632;51.276;7.116;2023-05-10T12:45:10;22.83;;;7.65;;
20945;SDS011;10632;51.276;7.116;2023-05-10T12:47:39;26.00;;;7.72;;
20945;SDS011;10632;51.276;7.116;2023-05-10T12:50:06;25.15;;;7.32;;
20945;SDS011;10632;51.276;7.116;2023-05-10T12:52:36;20.60;;;6.78;;
20945;SDS011;10632;51.276;7.116;2023-05-10T12:55:03;20.58;;;6.13;;
20945;SDS011;10632;51.276;7.116;2023-05-10T12:57:31;18.58;;;6.28;;
20945;SDS011;10632;51.276;7.116;2023-05-10T12:59:58;15.57;;;6.00;;
20945;SDS011;10632;51.276;7.116;2023-05-10T13:02:25;17.60;;;5.75;;
20945;SDS011;10632;51.276;7.116;2023-05-10T13:04:53;18.52;;;6.45;;
20945;SDS011;10632;51.276;7.116;2023-05-10T13:07:20;18.38;;;5.90;;
20945;SDS011;10632;51.276;7.116;2023-05-10T13:09:47;17.35;;;6.18;;
20945;SDS011;10632;51.276;7.116;2023-05-10T13:12:13;17.58;;;6.18;;
20945;SDS011;10632;51.276;7.116;2023-05-10T13:14:40;19.83;;;6.43;;
20945;SDS011;10632;51.276;7.116;2023-05-10T13:17:08;16.95;;;6.13;;
20945;SDS011;10632;51.276;7.116;2023-05-10T13:19:35;18.55;;;6.25;;
20945;SDS011;10632;51.276;7.116;2023-05-10T13:22:03;15.60;;;5.68;;
20945;SDS011;10632;51.276;7.116;2023-05-10T13:24:30;15.90;;;6.03;;
20945;SDS011;10632;51.276;7.116;2023-05-10T13:26:57;19.52;;;6.05;;
20945;SDS011;10632;51.276;7.116;2023-05-10T13:29:25;17.65;;;6.18;;
20945;SDS011;10632;51.276;7.116;2023-05-10T13:31:55;18.20;;;5.93;;
20945;SDS011;10632;51.276;7.116;2023-05-10T13:34:21;18.33;;;5.78;;
20945;SDS011;10632;51.276;7.116;2023-05-10T13:36:49;17.35;;;5.95;;
20945;SDS011;10632;51.276;7.116;2023-05-10T13:39:17;16.15;;;5.88;;
20945;SDS011;10632;51.276;7.116;2023-05-10T13:41:44;15.60;;;5.57;;
20945;SDS011;10632;51.276;7.116;2023-05-10T13:44:12;16.08;;;5.28;;
20945;SDS011;10632;51.276;7.116;2023-05-10T13:46:39;16.70;;;5.53;;
20945;SDS011;10632;51.276;7.116;2023-05-10T13:49:08;14.25;;;5.82;;
20945;SDS011;10632;51.276;7.116;2023-05-10T13:51:38;16.83;;;5.70;;
20945;SDS011;10632;51.276;7.116;2023-05-10T13:54:05;15.98;;;5.47;;
20945;SDS011;10632;51.276;7.116;2023-05-10T13:56:33;19.92;;;6.22;;
20945;SDS011;10632;51.276;7.116;2023-05-10T13:59:00;16.20;;;5.90;;
20945;SDS011;10632;51.276;7.116;2023-05-10T14:01:27;18.10;;;5.63;;
20945;SDS011;10632;51.276;7.116;2023-05-10T14:03:54;16.17;;;5.32;;
20945;SDS011;10632;51.276;7.116;2023-05-10T14:06:21;17.83;;;6.10;;
20945;SDS011;10632;51.276;7.116;2023-05-10T14:08:51;19.52;;;6.53;;
20945;SDS011;10632;51.276;7.116;2023-05-10T14:11:18;18.70;;;6.50;;
20945;SDS011;10632;51.276;7.116;2023-05-10T14:13:47;18.88;;;6.03;;
20945;SDS011;10632;51.276;7.116;2023-05-10T14:16:14;18.67;;;6.25;;
20945;SDS011;10632;51.276;7.116;2023-05-10T14:18:43;19.17;;;6.72;;
20945;SDS011;10632;51.276;7.116;2023-05-10T14:21:10;20.63;;;6.85;;
20945;SDS011;10632;51.276;7.116;2023-05-10T14:23:37;23.40;;;7.25;;
20945;SDS011;10632;51.276;7.116;2023-05-10T14:26:04;18.00;;;6.68;;
20945;SDS011;10632;51.276;7.116;2023-05-10T14:28:31;22.50;;;7.00;;
20945;SDS011;10632;51.276;7.116;2023-05-10T14:31:00;18.83;;;6.00;;
20945;SDS011;10632;51.276;7.116;2023-05-10T14:33:27;20.25;;;6.38;;
20945;SDS011;10632;51.276;7.116;2023-05-10T14:35:54;18.90;;;6.32;;
20945;SDS011;10632;51.276;7.116;2023-05-10T14:38:22;17.60;;;5.93;;
20945;SDS011;10632;51.276;7.116;2023-05-10T14:40:49;20.98;;;6.68;;
20945;SDS011;10632;51.276;7.116;2023-05-10T14:43:16;20.92;;;6.93;;
20945;SDS011;10632;51.276;7.116;2023-05-10T14:45:43;21.02;;;7.13;;
20945;SDS011;10632;51.276;7.116;2023-05-10T14:48:11;23.88;;;7.28;;
20945;SDS011;10632;51.276;7.116;2023-05-10T14:50:40;23.52;;;7.25;;